Time;durP1;ratioP1;P1;durP2;ratioP2;P2;SDS_P1;SDS_P2;PMS_P1;PMS_P2;Temp;Humidity;BMP_temperature;BMP_pressure;BME280_temperature;BME280_humidity;BME280_pressure;Samples;Min_cycle;Max_cycle;Signal;HPM_P1;HPM_P2
2021/10/12 00:02:10;;;;;;;1.90;0.57;;;;;;;;;;4952711;28;20031;-53
2021/10/12 00:04:38;;;;;;;1.13;0.45;;;;;;;;;;4969059;28;20425;-54
2021/10/12 00:07:04;;;;;;;1.13;0.40;;;;;;;;;;4951914;28;20126;-54
2021/10/12 00:09:30;;;;;;;1.17;0.40;;;;;;;;;;4949771;28;20055;-52
2021/10/12 00:11:56;;;;;;;0.75;0.40;;;;;;;;;;4951457;28;20579;-53
2021/10/12 00:14:22;;;;;;;1.63;0.57;;;;;;;;;;4950344;28;20055;-55
2021/10/12 00:16:48;;;;;;;1.17;0.50;;;;;;;;;;4950922;28;20520;-52
2021/10/12 00:19:14;;;;;;;1.42;0.50;;;;;;;;;;4953802;28;20791;-52
2021/10/12 00:21:40;;;;;;;1.48;0.50;;;;;;;;;;4955307;28;20512;-54
2021/10/12 00:24:06;;;;;;;1.55;0.50;;;;;;;;;;4953217;28;20039;-55
2021/10/12 00:26:32;;;;;;;2.33;0.50;;;;;;;;;;4953111;28;20066;-55
2021/10/12 00:28:57;;;;;;;4.25;0.60;;;;;;;;;;4953664;28;20037;-52
2021/10/12 00:31:23;;;;;;;1.20;0.40;;;;;;;;;;4953363;28;20034;-54
2021/10/12 00:33:49;;;;;;;4.90;0.70;;;;;;;;;;4953523;28;20061;-54
2021/10/12 00:36:15;;;;;;;0.90;0.40;;;;;;;;;;4951767;28;20045;-52
2021/10/12 00:38:41;;;;;;;1.25;0.40;;;;;;;;;;4950049;28;20043;-52
2021/10/12 00:41:07;;;;;;;5.38;1.00;;;;;;;;;;4952683;28;20114;-53
2021/10/12 00:43:34;;;;;;;1.30;0.50;;;;;;;;;;4953087;28;20062;-53
2021/10/12 00:46:00;;;;;;;1.30;0.45;;;;;;;;;;4952702;28;20046;-55
2021/10/12 00:48:26;;;;;;;2.20;0.60;;;;;;;;;;4954541;28;20052;-54
2021/10/12 00:50:52;;;;;;;0.95;0.50;;;;;;;;;;4954978;28;20046;-52
2021/10/12 00:53:18;;;;;;;2.05;0.60;;;;;;;;;;4950923;28;20071;-52
2021/10/12 00:55:43;;;;;;;1.80;0.57;;;;;;;;;;4954652;28;20050;-51
2021/10/12 00:58:10;;;;;;;0.57;0.35;;;;;;;;;;4953558;28;20035;-54
2021/10/12 01:00:36;;;;;;;1.67;0.60;;;;;;;;;;4954461;28;20101;-52
2021/10/12 01:03:03;;;;;;;1.60;0.50;;;;;;;;;;4957356;28;20043;-51
2021/10/12 01:05:29;;;;;;;2.17;0.50;;;;;;;;;;4952534;28;20122;-53
2021/10/12 01:07:55;;;;;;;3.08;1.10;;;;;;;;;;4951259;28;20091;-52
2021/10/12 01:10:21;;;;;;;2.75;0.88;;;;;;;;;;4954585;28;20080;-54
2021/10/12 01:12:47;;;;;;;3.85;0.90;;;;;;;;;;4951594;28;20039;-52
2021/10/12 01:15:13;;;;;;;3.92;0.75;;;;;;;;;;4952094;28;20058;-52
2021/10/12 01:17:39;;;;;;;2.85;0.80;;;;;;;;;;4952498;28;20053;-53
2021/10/12 01:20:06;;;;;;;1.13;0.43;;;;;;;;;;4953501;28;20498;-50
2021/10/12 01:22:32;;;;;;;2.25;0.65;;;;;;;;;;4951429;28;20042;-55
2021/10/12 01:24:58;;;;;;;2.47;0.70;;;;;;;;;;4951536;28;20042;-52
2021/10/12 01:27:24;;;;;;;3.10;0.85;;;;;;;;;;4951591;28;20042;-54
2021/10/12 01:29:50;;;;;;;1.70;0.60;;;;;;;;;;4952693;28;20051;-55
2021/10/12 01:32:16;;;;;;;4.35;1.27;;;;;;;;;;4953495;28;20109;-55
2021/10/12 01:34:43;;;;;;;2.90;0.90;;;;;;;;;;4949230;28;20053;-55
2021/10/12 01:37:09;;;;;;;3.47;1.10;;;;;;;;;;4951643;28;20039;-51
2021/10/12 01:39:34;;;;;;;4.63;0.82;;;;;;;;;;4953466;28;20075;-53
2021/10/12 01:42:01;;;;;;;4.25;1.00;;;;;;;;;;4953130;28;20046;-54
2021/10/12 01:44:27;;;;;;;5.00;0.70;;;;;;;;;;4951790;28;20063;-54
2021/10/12 01:46:53;;;;;;;4.10;0.90;;;;;;;;;;4952954;28;20535;-54
2021/10/12 01:49:19;;;;;;;2.42;0.70;;;;;;;;;;4950841;28;20419;-56
2021/10/12 01:51:45;;;;;;;3.90;0.93;;;;;;;;;;4954440;28;20540;-54
2021/10/12 01:54:14;;;;;;;2.50;0.90;;;;;;;;;;4967200;28;20047;-52
2021/10/12 01:56:40;;;;;;;2.53;1.00;;;;;;;;;;4950201;28;20043;-55
2021/10/12 01:59:06;;;;;;;2.50;0.80;;;;;;;;;;4950205;28;20032;-51
2021/10/12 02:01:32;;;;;;;2.30;0.80;;;;;;;;;;4950082;28;20109;-54
2021/10/12 02:03:58;;;;;;;3.63;1.10;;;;;;;;;;4951014;28;20050;-53
2021/10/12 02:06:24;;;;;;;3.00;1.00;;;;;;;;;;4948764;28;20039;-54
2021/10/12 02:08:49;;;;;;;2.60;0.90;;;;;;;;;;4950569;28;20089;-54
2021/10/12 02:11:15;;;;;;;3.10;1.00;;;;;;;;;;4951400;28;20662;-54
2021/10/12 02:13:41;;;;;;;3.95;1.10;;;;;;;;;;4964494;28;20441;-54
2021/10/12 02:16:07;;;;;;;3.47;0.85;;;;;;;;;;4950071;28;20071;-52
2021/10/12 02:18:33;;;;;;;2.90;0.95;;;;;;;;;;4941395;28;20045;-51
2021/10/12 02:20:59;;;;;;;5.13;1.10;;;;;;;;;;4950903;28;20046;-51
2021/10/12 02:23:25;;;;;;;2.80;1.05;;;;;;;;;;4946966;28;20039;-54
2021/10/12 02:25:51;;;;;;;4.07;1.30;;;;;;;;;;4949301;28;20137;-51
2021/10/12 02:28:17;;;;;;;2.85;1.05;;;;;;;;;;4948863;28;20544;-54
2021/10/12 02:30:42;;;;;;;3.13;1.10;;;;;;;;;;4982264;28;20074;-54
2021/10/12 02:33:08;;;;;;;3.20;1.10;;;;;;;;;;4968678;28;20492;-54
2021/10/12 02:35:34;;;;;;;3.35;1.15;;;;;;;;;;4968745;28;20098;-54
2021/10/12 02:38:00;;;;;;;3.58;1.17;;;;;;;;;;4969463;28;20053;-52
2021/10/12 02:40:26;;;;;;;3.70;1.10;;;;;;;;;;4969050;28;20050;-53
2021/10/12 02:42:52;;;;;;;3.33;1.13;;;;;;;;;;4965101;28;20074;-52
2021/10/12 02:45:17;;;;;;;4.22;1.20;;;;;;;;;;4948333;28;20062;-52
2021/10/12 02:47:43;;;;;;;5.30;1.40;;;;;;;;;;4967222;28;20047;-54
2021/10/12 02:50:09;;;;;;;3.60;1.40;;;;;;;;;;4953856;28;20031;-53
2021/10/12 02:52:35;;;;;;;4.78;1.50;;;;;;;;;;4947613;28;20043;-52
2021/10/12 02:55:01;;;;;;;2.92;1.00;;;;;;;;;;4950360;28;20685;-53
2021/10/12 02:57:27;;;;;;;3.85;1.23;;;;;;;;;;4949528;28;20389;-50
2021/10/12 02:59:53;;;;;;;4.38;1.27;;;;;;;;;;4951231;28;20042;-53
2021/10/12 03:02:19;;;;;;;5.95;1.20;;;;;;;;;;4951300;28;20187;-51
2021/10/12 03:04:45;;;;;;;4.13;0.95;;;;;;;;;;4949668;28;20054;-53
2021/10/12 03:07:11;;;;;;;5.55;1.40;;;;;;;;;;4948747;28;20043;-53
2021/10/12 03:09:37;;;;;;;3.10;1.08;;;;;;;;;;4948229;28;20054;-53
2021/10/12 03:12:05;;;;;;;8.85;1.50;;;;;;;;;;4948347;28;20162;-51
2021/10/12 03:14:31;;;;;;;3.60;1.35;;;;;;;;;;4950108;28;20085;-52
2021/10/12 03:16:57;;;;;;;5.82;0.93;;;;;;;;;;4951404;28;20039;-51
2021/10/12 03:19:23;;;;;;;5.35;1.42;;;;;;;;;;4949438;28;20448;-53
2021/10/12 03:22:01;;;;;;;3.70;1.23;;;;;;;;;;4950224;28;20039;-51
2021/10/12 03:24:27;;;;;;;3.63;1.40;;;;;;;;;;4949263;28;20563;-53
2021/10/12 03:26:52;;;;;;;4.78;1.42;;;;;;;;;;4963518;28;20051;-51
2021/10/12 03:29:18;;;;;;;3.42;1.35;;;;;;;;;;4950056;28;20956;-51
2021/10/12 03:31:44;;;;;;;3.50;1.17;;;;;;;;;;4948405;28;20130;-52
2021/10/12 03:34:10;;;;;;;2.70;0.90;;;;;;;;;;4949469;28;20043;-52
2021/10/12 03:36:36;;;;;;;2.47;0.80;;;;;;;;;;4949749;28;20456;-54
2021/10/12 03:39:02;;;;;;;4.05;1.15;;;;;;;;;;4952367;28;20051;-54
2021/10/12 03:41:28;;;;;;;2.40;0.85;;;;;;;;;;4952924;28;20043;-54
2021/10/12 03:43:54;;;;;;;3.00;1.05;;;;;;;;;;4949838;28;20054;-51
2021/10/12 03:46:20;;;;;;;2.85;1.00;;;;;;;;;;4948941;28;20408;-53
2021/10/12 03:48:45;;;;;;;4.72;1.35;;;;;;;;;;4950007;28;20206;-54
2021/10/12 03:51:11;;;;;;;2.80;0.98;;;;;;;;;;4949467;28;20034;-51
2021/10/12 03:53:37;;;;;;;3.03;1.10;;;;;;;;;;4950858;28;20050;-50
2021/10/12 03:56:04;;;;;;;4.38;1.20;;;;;;;;;;4969465;28;20050;-54
2021/10/12 03:58:30;;;;;;;3.58;1.27;;;;;;;;;;4954649;28;20039;-54
2021/10/12 04:00:55;;;;;;;4.22;1.38;;;;;;;;;;4953556;28;20049;-53
2021/10/12 04:03:21;;;;;;;10.25;1.60;;;;;;;;;;4953596;28;20473;-51
2021/10/12 04:05:47;;;;;;;3.78;1.10;;;;;;;;;;4953261;28;20043;-52
2021/10/12 04:08:13;;;;;;;4.10;1.20;;;;;;;;;;4953747;28;20425;-51
2021/10/12 04:10:39;;;;;;;5.45;1.45;;;;;;;;;;4951928;28;20039;-53
2021/10/12 04:13:05;;;;;;;3.25;0.98;;;;;;;;;;4953295;28;20043;-52
2021/10/12 04:15:31;;;;;;;5.22;1.25;;;;;;;;;;4951180;28;20464;-51
2021/10/12 04:17:57;;;;;;;2.88;1.13;;;;;;;;;;4952533;28;20036;-51
2021/10/12 04:20:25;;;;;;;4.45;1.38;;;;;;;;;;4952685;28;20098;-54
2021/10/12 04:22:51;;;;;;;3.10;1.00;;;;;;;;;;4952819;28;20039;-52
2021/10/12 04:25:18;;;;;;;3.58;1.23;;;;;;;;;;4950835;28;20173;-53
2021/10/12 04:27:44;;;;;;;4.03;1.30;;;;;;;;;;4958329;28;20074;-53
2021/10/12 04:30:10;;;;;;;3.53;1.20;;;;;;;;;;4954176;28;20161;-53
2021/10/12 04:32:36;;;;;;;3.80;1.23;;;;;;;;;;4956031;28;20043;-53
2021/10/12 04:35:02;;;;;;;3.50;1.38;;;;;;;;;;4956706;28;20052;-54
2021/10/12 04:37:28;;;;;;;4.35;1.08;;;;;;;;;;4951886;28;20043;-51
2021/10/12 04:39:54;;;;;;;5.80;1.60;;;;;;;;;;4953642;28;20039;-54
2021/10/12 04:42:20;;;;;;;4.40;1.40;;;;;;;;;;4954261;28;20069;-52
2021/10/12 04:44:50;;;;;;;4.55;1.38;;;;;;;;;;4954181;28;20104;-52
2021/10/12 04:47:18;;;;;;;3.58;1.20;;;;;;;;;;4953911;28;20101;-54
2021/10/12 04:49:44;;;;;;;5.78;1.55;;;;;;;;;;4962281;28;20412;-54
2021/10/12 04:52:10;;;;;;;4.53;1.40;;;;;;;;;;4952558;28;20046;-50
2021/10/12 04:54:36;;;;;;;4.22;1.60;;;;;;;;;;4953000;28;20046;-53
2021/10/12 04:57:01;;;;;;;4.53;1.80;;;;;;;;;;4954299;28;20042;-53
2021/10/12 04:59:27;;;;;;;3.90;1.60;;;;;;;;;;4953160;28;20161;-52
2021/10/12 05:01:53;;;;;;;4.30;1.40;;;;;;;;;;4954306;28;20110;-50
2021/10/12 05:04:19;;;;;;;4.13;1.33;;;;;;;;;;4954475;28;20069;-51
2021/10/12 05:06:45;;;;;;;4.55;1.35;;;;;;;;;;4951856;28;20053;-54
2021/10/12 05:09:10;;;;;;;2.50;0.93;;;;;;;;;;4960980;28;20045;-53
2021/10/12 05:11:36;;;;;;;3.47;1.48;;;;;;;;;;4971968;28;20495;-53
2021/10/12 05:14:02;;;;;;;3.55;1.35;;;;;;;;;;4972949;28;20157;-51
2021/10/12 05:16:29;;;;;;;5.25;1.67;;;;;;;;;;4969784;28;20050;-53
2021/10/12 05:18:58;;;;;;;3.67;1.38;;;;;;;;;;4973513;28;20053;-54
2021/10/12 05:21:24;;;;;;;4.18;1.50;;;;;;;;;;4973261;28;20045;-52
2021/10/12 05:23:50;;;;;;;3.22;1.30;;;;;;;;;;4954617;28;20047;-51
2021/10/12 05:26:16;;;;;;;5.53;1.92;;;;;;;;;;4952451;28;20570;-54
2021/10/12 05:28:42;;;;;;;4.82;1.60;;;;;;;;;;4954924;28;20073;-53
2021/10/12 05:31:07;;;;;;;4.18;1.70;;;;;;;;;;4972232;28;20101;-51
2021/10/12 05:33:33;;;;;;;4.60;1.40;;;;;;;;;;4971583;28;20045;-52
2021/10/12 05:36:00;;;;;;;5.80;2.08;;;;;;;;;;4973517;28;20058;-50
2021/10/12 05:38:27;;;;;;;3.97;1.70;;;;;;;;;;4973963;28;20400;-51
2021/10/12 05:40:53;;;;;;;3.88;1.40;;;;;;;;;;4976156;28;20035;-53
2021/10/12 05:43:19;;;;;;;8.13;1.98;;;;;;;;;;4974249;28;20743;-49
2021/10/12 05:45:45;;;;;;;3.92;1.40;;;;;;;;;;4974642;28;20042;-52
2021/10/12 05:48:12;;;;;;;4.25;1.30;;;;;;;;;;4959009;28;20043;-52
2021/10/12 05:50:41;;;;;;;3.92;1.50;;;;;;;;;;4959234;28;20043;-50
2021/10/12 06:00:55;;;;;;;3.90;1.77;;;;;;;;;;4971179;28;20074;-53
2021/10/12 06:03:21;;;;;;;3.78;1.60;;;;;;;;;;4961703;28;20085;-53
2021/10/12 06:05:47;;;;;;;5.93;1.92;;;;;;;;;;4953152;28;20049;-52
2021/10/12 06:08:13;;;;;;;3.25;1.40;;;;;;;;;;4951583;28;20059;-53
2021/10/12 06:10:39;;;;;;;4.00;1.63;;;;;;;;;;4951334;28;20035;-53
2021/10/12 06:13:11;;;;;;;3.85;1.35;;;;;;;;;;4953555;28;20049;-51
2021/10/12 06:15:39;;;;;;;4.65;1.67;;;;;;;;;;4953137;28;20054;-51
2021/10/12 06:18:05;;;;;;;8.55;1.77;;;;;;;;;;4951465;28;20042;-50
2021/10/12 06:20:31;;;;;;;7.03;1.70;;;;;;;;;;4951675;28;20046;-53
2021/10/12 06:22:56;;;;;;;6.28;1.80;;;;;;;;;;4954325;28;20142;-51
2021/10/12 06:25:22;;;;;;;6.55;1.58;;;;;;;;;;4952833;28;20556;-53
2021/10/12 06:27:48;;;;;;;7.05;1.77;;;;;;;;;;4961361;28;20043;-51
2021/10/12 06:30:14;;;;;;;5.07;1.77;;;;;;;;;;4953375;28;20047;-50
2021/10/12 06:32:40;;;;;;;8.27;1.85;;;;;;;;;;4952923;28;20082;-51
2021/10/12 06:35:07;;;;;;;5.70;1.83;;;;;;;;;;4953372;28;20146;-51
2021/10/12 06:37:33;;;;;;;3.83;1.75;;;;;;;;;;4953071;28;20050;-50
2021/10/12 06:39:59;;;;;;;4.45;1.65;;;;;;;;;;4952524;28;20039;-50
2021/10/12 06:42:24;;;;;;;3.28;1.35;;;;;;;;;;4952884;28;20050;-52
2021/10/12 06:44:50;;;;;;;5.20;1.88;;;;;;;;;;4954115;28;20043;-50
2021/10/12 06:47:16;;;;;;;4.55;1.77;;;;;;;;;;4952341;28;20764;-50
2021/10/12 06:49:42;;;;;;;3.88;1.50;;;;;;;;;;4952533;28;20049;-50
2021/10/12 06:52:08;;;;;;;4.70;2.00;;;;;;;;;;4953783;28;20045;-50
2021/10/12 06:54:34;;;;;;;5.50;1.95;;;;;;;;;;4952673;28;20694;-50
2021/10/12 06:57:01;;;;;;;4.05;1.52;;;;;;;;;;4953295;28;20038;-52
2021/10/12 06:59:27;;;;;;;5.75;1.90;;;;;;;;;;4952312;28;20134;-51
2021/10/12 07:01:53;;;;;;;9.15;1.60;;;;;;;;;;4952636;28;20042;-53
2021/10/12 07:04:20;;;;;;;5.40;1.80;;;;;;;;;;4951494;28;20031;-52
2021/10/12 07:06:46;;;;;;;3.65;1.60;;;;;;;;;;4950601;28;20537;-52
2021/10/12 07:09:14;;;;;;;4.93;1.50;;;;;;;;;;4952404;28;20051;-53
2021/10/12 07:11:40;;;;;;;4.68;1.55;;;;;;;;;;4952518;28;20072;-52
2021/10/12 07:14:06;;;;;;;3.75;1.60;;;;;;;;;;4951582;28;20043;-53
2021/10/12 07:16:32;;;;;;;6.90;2.08;;;;;;;;;;4950755;28;20066;-52
2021/10/12 07:18:58;;;;;;;3.70;1.55;;;;;;;;;;4950394;28;20039;-51
2021/10/12 07:21:25;;;;;;;7.85;1.90;;;;;;;;;;4950798;28;20051;-51
2021/10/12 07:23:51;;;;;;;4.03;1.27;;;;;;;;;;4951083;28;20093;-51
2021/10/12 07:26:18;;;;;;;5.63;1.60;;;;;;;;;;4951385;28;20400;-50
2021/10/12 07:28:44;;;;;;;3.20;1.30;;;;;;;;;;4971854;28;20042;-50
2021/10/12 07:31:10;;;;;;;3.15;1.10;;;;;;;;;;4965572;28;20134;-52
2021/10/12 07:33:36;;;;;;;5.28;1.52;;;;;;;;;;4950893;28;20034;-50
2021/10/12 07:36:03;;;;;;;3.78;1.40;;;;;;;;;;4951661;28;20197;-51
2021/10/12 07:38:29;;;;;;;5.80;1.48;;;;;;;;;;4951438;28;20460;-50
2021/10/12 07:40:55;;;;;;;3.05;1.33;;;;;;;;;;4952152;28;20296;-50
2021/10/12 07:43:21;;;;;;;3.55;1.40;;;;;;;;;;4952738;28;20035;-50
2021/10/12 07:45:48;;;;;;;2.35;1.02;;;;;;;;;;4951966;28;20134;-49
2021/10/12 07:48:15;;;;;;;3.08;1.30;;;;;;;;;;4951255;28;20039;-52
2021/10/12 07:50:41;;;;;;;5.30;1.58;;;;;;;;;;4950995;28;20139;-49
2021/10/12 07:53:06;;;;;;;4.38;1.30;;;;;;;;;;4952594;28;20070;-50
2021/10/12 07:55:37;;;;;;;4.07;1.35;;;;;;;;;;4949735;28;20672;-50
2021/10/12 07:58:03;;;;;;;2.97;1.20;;;;;;;;;;4951448;28;20085;-51
2021/10/12 08:00:32;;;;;;;4.43;1.70;;;;;;;;;;4951417;28;20039;-52
2021/10/12 08:02:59;;;;;;;4.82;1.40;;;;;;;;;;4950805;28;20138;-50
2021/10/12 08:05:26;;;;;;;3.03;1.15;;;;;;;;;;4953716;28;20114;-51
2021/10/12 08:07:52;;;;;;;3.95;1.25;;;;;;;;;;4955553;28;20051;-54
2021/10/12 08:10:18;;;;;;;3.33;1.17;;;;;;;;;;4955842;28;20040;-53
2021/10/12 08:12:46;;;;;;;3.00;1.15;;;;;;;;;;4956215;28;20053;-54
2021/10/12 08:15:12;;;;;;;5.55;1.80;;;;;;;;;;4953646;28;20108;-52
2021/10/12 08:17:38;;;;;;;2.78;1.05;;;;;;;;;;4964198;28;20057;-51
2021/10/12 08:20:05;;;;;;;3.17;1.38;;;;;;;;;;4952025;28;20046;-51
2021/10/12 08:22:31;;;;;;;12.25;1.33;;;;;;;;;;4951894;28;20042;-51
2021/10/12 08:24:57;;;;;;;4.15;1.42;;;;;;;;;;4953366;28;20051;-54
2021/10/12 08:27:23;;;;;;;3.65;1.17;;;;;;;;;;4949834;28;20040;-51
2021/10/12 08:29:48;;;;;;;3.63;1.13;;;;;;;;;;4951310;28;20054;-53
2021/10/12 08:32:14;;;;;;;1.90;0.88;;;;;;;;;;4953449;28;20078;-49
2021/10/12 08:34:41;;;;;;;2.85;1.27;;;;;;;;;;4956115;28;20423;-50
2021/10/12 08:37:07;;;;;;;3.35;1.20;;;;;;;;;;4972956;28;20038;-53
2021/10/12 08:39:33;;;;;;;3.10;1.00;;;;;;;;;;4971158;28;20178;-50
2021/10/12 08:42:22;;;;;;;4.35;1.33;;;;;;;;;;4974294;28;20038;-50
2021/10/12 08:45:07;;;;;;;9.82;0.90;;;;;;;;;;4954506;28;20039;-52
2021/10/12 08:47:33;;;;;;;2.28;0.80;;;;;;;;;;4954194;28;20133;-50
2021/10/12 08:50:00;;;;;;;3.20;1.08;;;;;;;;;;4955143;28;20142;-53
2021/10/12 08:52:26;;;;;;;3.10;1.10;;;;;;;;;;4952709;28;20039;-50
2021/10/12 08:54:53;;;;;;;2.40;1.00;;;;;;;;;;4952961;28;20074;-50
2021/10/12 08:57:39;;;;;;;3.53;1.05;;;;;;;;;;4952719;28;20082;-52
2021/10/12 09:00:11;;;;;;;2.03;0.75;;;;;;;;;;4953547;28;20039;-50
2021/10/12 09:02:55;;;;;;;3.17;1.13;;;;;;;;;;4959926;28;20074;-51
2021/10/12 09:05:25;;;;;;;2.80;1.20;;;;;;;;;;4952033;28;20082;-53
2021/10/12 09:07:51;;;;;;;2.75;1.30;;;;;;;;;;4952697;28;20966;-50
2021/10/12 09:10:21;;;;;;;3.08;1.27;;;;;;;;;;4953278;28;20047;-50
2021/10/12 09:12:49;;;;;;;2.78;1.15;;;;;;;;;;4971044;28;20046;-50
2021/10/12 09:15:16;;;;;;;2.33;0.88;;;;;;;;;;4957380;28;20057;-51
2021/10/12 09:17:42;;;;;;;2.15;0.90;;;;;;;;;;4952794;28;22075;-50
2021/10/12 09:20:10;;;;;;;2.55;1.15;;;;;;;;;;4951451;28;20042;-52
2021/10/12 09:22:37;;;;;;;2.60;1.13;;;;;;;;;;4952282;28;20054;-51
2021/10/12 09:25:25;;;;;;;2.47;1.02;;;;;;;;;;4952497;28;20041;-50
2021/10/12 09:27:57;;;;;;;2.88;1.00;;;;;;;;;;4971997;28;20450;-51
2021/10/12 09:30:28;;;;;;;2.05;0.80;;;;;;;;;;4971544;28;20034;-51
2021/10/12 09:33:12;;;;;;;2.47;1.00;;;;;;;;;;4971785;28;20093;-49
2021/10/12 09:35:38;;;;;;;2.53;0.88;;;;;;;;;;4970364;28;20054;-50
2021/10/12 09:38:04;;;;;;;2.67;0.90;;;;;;;;;;4965630;28;20097;-49
2021/10/12 09:40:30;;;;;;;2.83;1.13;;;;;;;;;;4950872;28;20046;-53
2021/10/12 09:42:55;;;;;;;2.50;1.10;;;;;;;;;;4952274;28;20137;-52
2021/10/12 09:45:41;;;;;;;2.95;1.13;;;;;;;;;;4951486;28;20074;-50
2021/10/12 09:48:25;;;;;;;3.95;1.00;;;;;;;;;;4953327;28;20081;-52
2021/10/12 09:51:05;;;;;;;3.00;1.08;;;;;;;;;;4967329;28;20069;-52
2021/10/12 09:53:31;;;;;;;3.30;1.10;;;;;;;;;;4972278;28;20137;-52
2021/10/12 09:55:57;;;;;;;2.85;1.15;;;;;;;;;;4957737;28;20043;-50
2021/10/12 09:58:23;;;;;;;3.10;1.35;;;;;;;;;;4967865;28;20042;-50
2021/10/12 10:00:49;;;;;;;3.08;1.20;;;;;;;;;;4952311;28;20105;-51
2021/10/12 10:03:15;;;;;;;3.05;1.27;;;;;;;;;;4951962;28;20038;-52
2021/10/12 10:05:41;;;;;;;2.58;1.08;;;;;;;;;;4952679;28;20043;-49
2021/10/12 10:08:07;;;;;;;2.35;0.93;;;;;;;;;;4952280;28;20149;-51
2021/10/12 10:10:34;;;;;;;3.95;1.25;;;;;;;;;;4952347;28;20455;-50
2021/10/12 10:13:00;;;;;;;2.53;1.00;;;;;;;;;;4952171;28;20038;-49
2021/10/12 10:15:26;;;;;;;2.70;1.08;;;;;;;;;;4952190;28;20078;-51
2021/10/12 10:17:52;;;;;;;2.67;1.13;;;;;;;;;;4952145;28;20047;-52
2021/10/12 10:20:18;;;;;;;2.47;1.05;;;;;;;;;;4952288;28;20050;-52
2021/10/12 10:25:29;;;;;;;2.65;1.15;;;;;;;;;;4951552;28;20050;-49
2021/10/12 10:27:55;;;;;;;2.08;0.88;;;;;;;;;;4958711;28;20576;-52
2021/10/12 10:30:22;;;;;;;2.55;0.90;;;;;;;;;;4951394;28;20054;-50
2021/10/12 10:32:52;;;;;;;2.78;1.00;;;;;;;;;;4952084;28;20264;-52
2021/10/12 10:35:33;;;;;;;2.17;0.82;;;;;;;;;;4952271;28;20051;-52
2021/10/12 10:38:18;;;;;;;1.83;0.60;;;;;;;;;;4969759;28;20061;-52
2021/10/12 10:40:44;;;;;;;3.85;0.88;;;;;;;;;;4966620;28;20113;-50
2021/10/12 10:43:09;;;;;;;1.70;0.70;;;;;;;;;;4950880;28;20053;-49
2021/10/12 10:45:40;;;;;;;7.82;0.80;;;;;;;;;;4952527;28;20074;-51
2021/10/12 10:48:05;;;;;;;2.58;0.82;;;;;;;;;;4953029;28;20483;-50
2021/10/12 10:50:34;;;;;;;1.95;0.80;;;;;;;;;;4951994;28;20046;-50
2021/10/12 10:53:03;;;;;;;1.90;0.80;;;;;;;;;;4952287;28;20047;-54
2021/10/12 10:55:30;;;;;;;3.70;0.90;;;;;;;;;;4965862;28;20194;-52
2021/10/12 10:58:03;;;;;;;2.05;0.63;;;;;;;;;;4953150;28;21919;-50
2021/10/12 11:00:35;;;;;;;2.38;0.77;;;;;;;;;;4951327;28;20047;-51
2021/10/12 11:03:01;;;;;;;3.08;1.00;;;;;;;;;;4952786;28;20167;-51
2021/10/12 11:05:29;;;;;;;1.77;0.70;;;;;;;;;;4950805;28;20547;-50
2021/10/12 11:08:07;;;;;;;2.00;0.70;;;;;;;;;;4951333;28;20052;-51
2021/10/12 11:10:33;;;;;;;1.67;0.63;;;;;;;;;;4958664;28;20036;-52
2021/10/12 11:12:59;;;;;;;2.72;0.95;;;;;;;;;;4951154;28;20043;-52
2021/10/12 11:15:25;;;;;;;2.70;1.10;;;;;;;;;;4950564;28;20055;-51
2021/10/12 11:18:04;;;;;;;3.08;1.00;;;;;;;;;;4951744;28;20043;-52
2021/10/12 11:20:38;;;;;;;4.30;1.23;;;;;;;;;;4951467;28;20880;-52
2021/10/12 11:23:04;;;;;;;3.65;1.00;;;;;;;;;;4952660;28;20784;-51
2021/10/12 11:25:30;;;;;;;3.70;1.20;;;;;;;;;;4951991;28;20047;-51
2021/10/12 11:28:05;;;;;;;2.58;1.00;;;;;;;;;;4953415;28;20039;-51
2021/10/12 11:30:37;;;;;;;2.17;0.90;;;;;;;;;;4954069;28;20125;-53
2021/10/12 11:33:03;;;;;;;3.60;1.30;;;;;;;;;;4959827;28;20062;-53
2021/10/12 11:35:36;;;;;;;2.47;1.00;;;;;;;;;;4954967;28;20063;-50
2021/10/12 11:38:02;;;;;;;3.08;1.15;;;;;;;;;;4951727;28;20130;-50
2021/10/12 11:40:28;;;;;;;9.05;1.00;;;;;;;;;;4949581;28;20035;-53
2021/10/12 11:42:59;;;;;;;2.05;0.90;;;;;;;;;;4950518;28;20527;-50
2021/10/12 11:45:26;;;;;;;3.88;1.02;;;;;;;;;;4949044;28;20062;-51
2021/10/12 11:47:52;;;;;;;3.33;0.82;;;;;;;;;;4950495;28;20035;-54
2021/10/12 11:50:17;;;;;;;2.90;1.02;;;;;;;;;;4951884;28;20031;-53
2021/10/12 11:52:50;;;;;;;2.55;0.85;;;;;;;;;;4966490;28;20559;-53
2021/10/12 11:55:17;;;;;;;2.50;1.00;;;;;;;;;;4950760;28;20098;-51
2021/10/12 11:57:46;;;;;;;2.83;1.20;;;;;;;;;;4967357;28;20456;-52
2021/10/12 12:00:12;;;;;;;2.45;1.00;;;;;;;;;;4951712;28;20077;-52
2021/10/12 12:02:40;;;;;;;2.03;0.95;;;;;;;;;;4949554;28;25088;-53
2021/10/12 12:05:06;;;;;;;2.35;0.77;;;;;;;;;;4950539;28;20074;-53
2021/10/12 12:07:33;;;;;;;2.42;1.00;;;;;;;;;;4950877;28;20031;-53
2021/10/12 12:09:59;;;;;;;2.40;0.85;;;;;;;;;;4951330;28;20507;-53
2021/10/12 12:12:25;;;;;;;2.80;1.00;;;;;;;;;;4950508;28;20031;-51
2021/10/12 12:14:52;;;;;;;3.58;1.30;;;;;;;;;;4953138;28;20567;-50
2021/10/12 12:17:22;;;;;;;2.33;0.95;;;;;;;;;;4968577;28;20449;-52
2021/10/12 12:19:52;;;;;;;2.20;0.88;;;;;;;;;;4973355;28;20520;-50
2021/10/12 12:22:22;;;;;;;5.70;1.33;;;;;;;;;;4970830;28;20042;-50
2021/10/12 12:24:58;;;;;;;6.82;1.08;;;;;;;;;;4972904;28;20090;-51
2021/10/12 12:27:26;;;;;;;5.68;1.42;;;;;;;;;;4972406;28;20129;-50
2021/10/12 12:29:58;;;;;;;4.50;1.15;;;;;;;;;;4972639;28;20046;-52
2021/10/12 12:32:24;;;;;;;5.50;1.88;;;;;;;;;;4971423;28;20037;-52
2021/10/12 12:34:57;;;;;;;4.00;1.52;;;;;;;;;;4968498;28;20051;-53
2021/10/12 12:37:25;;;;;;;3.28;1.30;;;;;;;;;;4952911;28;20448;-50
2021/10/12 12:39:50;;;;;;;2.35;1.02;;;;;;;;;;4951890;28;20721;-51
2021/10/12 12:42:34;;;;;;;10.18;1.40;;;;;;;;;;4952762;28;20712;-50
2021/10/12 12:45:12;;;;;;;3.58;1.10;;;;;;;;;;4971652;28;20553;-50
2021/10/12 12:47:38;;;;;;;3.47;1.70;;;;;;;;;;4954567;28;22651;-51
2021/10/12 12:50:10;;;;;;;2.55;1.20;;;;;;;;;;4954531;28;20039;-49
2021/10/12 12:52:36;;;;;;;1.98;0.90;;;;;;;;;;4951790;28;20572;-51
2021/10/12 12:55:03;;;;;;;2.55;1.15;;;;;;;;;;4953511;28;20177;-53
2021/10/12 12:57:28;;;;;;;2.53;1.05;;;;;;;;;;4951773;28;20050;-50
2021/10/12 13:00:00;;;;;;;2.13;0.85;;;;;;;;;;4952858;28;20039;-51
2021/10/12 13:02:26;;;;;;;4.05;1.10;;;;;;;;;;4953094;28;20126;-51
2021/10/12 13:04:52;;;;;;;2.85;1.27;;;;;;;;;;4957358;28;20070;-51
2021/10/12 13:07:18;;;;;;;6.55;1.08;;;;;;;;;;4957326;28;20411;-50
2021/10/12 13:09:46;;;;;;;3.53;1.27;;;;;;;;;;4973733;28;20054;-50
2021/10/12 13:12:15;;;;;;;2.20;0.90;;;;;;;;;;4973170;28;20189;-51
2021/10/12 13:14:45;;;;;;;2.40;0.95;;;;;;;;;;4970849;28;20058;-50
2021/10/12 13:17:13;;;;;;;3.80;1.30;;;;;;;;;;4972706;28;20038;-50
2021/10/12 13:19:39;;;;;;;4.85;1.77;;;;;;;;;;4971379;28;20041;-53
2021/10/12 13:22:05;;;;;;;3.75;1.27;;;;;;;;;;4972991;28;20094;-49
2021/10/12 13:24:30;;;;;;;3.53;1.48;;;;;;;;;;4972808;28;20057;-51
2021/10/12 13:26:56;;;;;;;3.35;1.48;;;;;;;;;;4966874;28;20082;-50
2021/10/12 13:29:22;;;;;;;4.10;1.45;;;;;;;;;;4953119;28;20133;-51
2021/10/12 13:31:48;;;;;;;3.42;1.27;;;;;;;;;;4953610;28;20039;-51
2021/10/12 13:34:14;;;;;;;7.15;1.88;;;;;;;;;;4952033;28;20039;-53
2021/10/12 13:36:39;;;;;;;2.95;1.30;;;;;;;;;;4952537;28;20439;-50
2021/10/12 13:39:05;;;;;;;7.63;1.48;;;;;;;;;;4952137;28;20051;-52
2021/10/12 13:41:32;;;;;;;5.07;2.05;;;;;;;;;;4952817;28;20380;-50
2021/10/12 13:43:59;;;;;;;4.35;1.98;;;;;;;;;;4951842;28;20035;-52
2021/10/12 13:46:25;;;;;;;3.42;1.48;;;;;;;;;;4951693;28;20137;-50
2021/10/12 13:48:51;;;;;;;2.92;1.17;;;;;;;;;;4952428;28;20050;-53
2021/10/12 13:51:16;;;;;;;5.40;1.60;;;;;;;;;;4953287;28;20694;-49
2021/10/12 13:53:42;;;;;;;3.17;1.60;;;;;;;;;;4952617;28;20042;-52
2021/10/12 13:56:09;;;;;;;6.72;1.98;;;;;;;;;;4951280;28;20042;-51
2021/10/12 13:58:34;;;;;;;3.22;1.10;;;;;;;;;;4951916;28;20133;-52
2021/10/12 14:01:00;;;;;;;3.90;1.33;;;;;;;;;;4966095;28;20043;-51
2021/10/12 14:03:26;;;;;;;3.70;1.48;;;;;;;;;;4952788;28;20080;-49
2021/10/12 14:05:52;;;;;;;6.28;1.48;;;;;;;;;;4954511;28;20599;-50
2021/10/12 14:08:18;;;;;;;4.13;1.50;;;;;;;;;;4954056;28;20440;-49
2021/10/12 14:10:44;;;;;;;5.22;1.55;;;;;;;;;;4972337;28;20034;-49
2021/10/12 14:13:10;;;;;;;3.65;0.90;;;;;;;;;;4971323;28;20039;-53
2021/10/12 14:15:36;;;;;;;8.30;1.42;;;;;;;;;;4970096;28;20109;-53
2021/10/12 14:18:02;;;;;;;4.80;1.80;;;;;;;;;;4964007;28;20100;-52
2021/10/12 14:20:28;;;;;;;3.95;1.42;;;;;;;;;;4951524;28;20117;-50
2021/10/12 14:22:54;;;;;;;3.22;1.35;;;;;;;;;;4951394;28;20500;-49
2021/10/12 14:25:21;;;;;;;3.35;1.50;;;;;;;;;;4951054;28;20464;-50
2021/10/12 14:27:47;;;;;;;5.97;1.52;;;;;;;;;;4951774;28;20090;-53
2021/10/12 14:30:13;;;;;;;8.95;2.28;;;;;;;;;;4949491;28;20043;-52
2021/10/12 14:32:39;;;;;;;6.07;1.65;;;;;;;;;;4952325;28;20439;-50
2021/10/12 14:35:06;;;;;;;5.55;1.90;;;;;;;;;;4952806;28;20078;-51
2021/10/12 14:37:35;;;;;;;4.07;1.67;;;;;;;;;;4951843;28;20038;-51
2021/10/12 14:40:03;;;;;;;3.75;1.75;;;;;;;;;;4951562;28;20050;-51
2021/10/12 14:42:30;;;;;;;3.78;1.52;;;;;;;;;;4951011;28;20166;-51
2021/10/12 14:44:56;;;;;;;5.75;1.83;;;;;;;;;;4951788;28;20043;-50
2021/10/12 14:47:21;;;;;;;5.03;1.60;;;;;;;;;;4951720;28;20049;-52
2021/10/12 14:49:47;;;;;;;3.25;1.60;;;;;;;;;;4952457;28;20068;-51
2021/10/12 14:52:13;;;;;;;4.07;1.38;;;;;;;;;;4951889;28;20507;-50
2021/10/12 14:54:39;;;;;;;3.83;1.40;;;;;;;;;;4951868;28;20129;-53